Historyczne dane pomiarowe

Dodano dane terminowe – wersja testowa.

Dane z okresu 1951-2019

Wersja bazy: 1.32 [2019-02-07, lista zmian], aktualizacja planowana na 2019-03-07

Dane meteo z obszaru Polski uzyskane na podstawie danych udostępnionych przez Instytut Meteorologii i Gospodarki Wodnej – Państwowy Instytut Badawczy.

 

Wybierz Datę:    

       

TemperaturaWilgotnośćWiatrCiśnienieOpadyŚniegCzas trwania zjawisk
 Stacja t tx tn tng RH VA  wxwx mslp ppp RRR   cm mm wxwxwxwxwxwxwx
2002-01-14 -2.8 -0.1 -7.6 -8.0 93.8- 7.7 1.7---- 0.0-- 2---------
2002-01-15 -4.0 -1.2 -5.8 -8.8 97.8- 5.3 1.3---- 0.0-- 2---------
2002-01-16 -7.3 -2.0-10.5-11.0 96.8- 8.0 0.0---- 0.0-- 2---------
2002-01-17 -3.0 0.5-10.0-10.6 97.3- 8.0 1.7---- 0.0-- 2---------
2002-01-18 -3.2 0.4 -6.5 -8.9 92.0- 3.3 2.0---- 0.0-- 2---------
2002-01-19 0.7 2.4 -0.9 -2.1 92.5- 8.0 2.3---- 0.7-- 2---------
2002-01-20 3.1 4.4 2.1 1.3 89.8- 8.0 3.0---- 7.5------------
2002-01-21 5.3 7.4 2.1 2.1 87.5- 7.7 4.3---- 2.1------------
2002-01-22 6.9 10.3 5.2 4.0 84.5- 7.0 3.3---- 0.0------------
2002-01-23 6.4 8.8 5.4 3.5 74.5- 2.3 4.0---- 0.1------------
2002-01-24 7.6 11.2 3.9 2.0 72.8- 4.3 5.0---- 0.5------------
2002-01-25 4.8 10.5 2.6 0.5 65.5- 4.0 6.0---- 2.0------------
2002-01-26 6.2 10.8 1.0 -0.6 83.0- 7.3 5.0---- 3.4------------
2002-01-27 8.1 11.1 6.5 5.5 89.5- 7.0 5.7---- 5.0------------
2002-01-28 8.8 14.1 5.9 4.4 87.0- 6.7 6.0---- 8.5------------
2002-01-29 9.6 11.2 6.9 5.1 69.0- 7.7 7.0---- 0.6------------
2002-01-30 8.7 12.1 5.5 4.0 74.3- 5.3 4.0---- 0.0------------
2002-01-31 8.6 12.3 5.4 3.0 71.0- 6.3 6.0---- 2.0------------
2002-02-01 6.0 10.5 1.5 -0.6 82.3- 5.0 3.7---- 0.0------------
2002-02-02 9.9 15.6 6.3 3.9 78.0- 0.7 2.7---- 0.0------------
2002-02-03 6.5 13.6 1.9 -1.4 83.3- 0.0 1.7---- 0.0------------
2002-02-04 5.7 12.6 1.8 -1.6 77.5- 0.0 3.0---- 0.0------------
2002-02-05 7.9 11.8 3.4 1.3 65.8- 7.0 3.3---- 0.1------------
2002-02-06 8.1 10.6 7.2 5.5 91.0- 7.3 1.7---- 0.0------------
2002-02-07 4.8 8.7 1.3 -0.9 90.0- 7.7 2.3---- 0.1------------
2002-02-08 6.3 8.3 4.7 4.1 92.3- 7.3 4.0---- 4.0------------
2002-02-09 9.0 12.2 5.4 3.5 87.0- 7.7 5.0---- 2.3------------
2002-02-10 6.9 11.7 5.2 3.5 89.0- 5.0 3.3---- 3.5------------
2002-02-11 7.5 9.3 5.2 3.5 95.5- 8.0 5.3---- 15.3------------
2002-02-12 10.4 12.9 9.1 8.4 80.3- 5.3 8.0---- 10.0------------
231.2 ms

 

Źródłem pochodzenia danych jest Instytut Meteorologii i Gospodarki Wodnej – Państwowy Instytut Badawczy. Dane Instytutu Meteorologii i Gospodarki Wodnej – Państwowego Instytutu Badawczego zostały przetworzone.

Dane źródłowe można odnaleźć na stronie https://dane.imgw.pl